Huvudsida
METAR-TAF:

METAR-TAF

Flygplatser :

Mitiga International Airport

Tripoli, Libyen

latitud: 32-54N, longitud: 13-17E, höjd: 11 m

METAR: saknas

Tid: 01:50 (23:50 UTC)

Väderprognos

Denna rapport gjordes för 50 minuter sedan, klockan 23:00 UTC
Prognos gäller från 19 kl. 00 UTC till 19 kl. 24 UTC
Vind 10 kt från syd/sydost
Sikt: 8000 m
Spridda moln på en höjd av 2500 ft
Blir
från 19 kl. 16 UTC till 19 kl. 18 UTC
Vind 10 kt från nord

TAF: HLLM 182300Z 1900/1924 16010KT 8000 SCT025 BECMG 1916/1918 36010KT

Aktuella väderrapporter och prognoser från 4000 flygplatser (METAR- och TAF-rapporter).

De tillgängliga stationerna syns som gula och röda prickar på kartan.

För musen över prickarna för att se namnen på stationerna.

Klicka sedan för att få väderrapporter och prognoser.

För att ändra kartan: Klicka på de gröna knapparna med ett svart kors på för att zooma in; den gröna knappen med ett streck på för att zooma ut; eller på de gröna pilarna för angränsande kartor.


METAR-TAF: